sensor_id;sensor_type;location;lat;lon;timestamp;P1;durP1;ratioP1;P2;durP2;ratioP2
14847;SDS011;7516;43.570;1.448;2023-10-19T00:02:05;3.03;;;1.70;;
14847;SDS011;7516;43.570;1.448;2023-10-19T00:04:32;3.28;;;1.48;;
14847;SDS011;7516;43.570;1.448;2023-10-19T00:07:01;4.28;;;1.70;;
14847;SDS011;7516;43.570;1.448;2023-10-19T00:09:30;3.75;;;1.42;;
14847;SDS011;7516;43.570;1.448;2023-10-19T00:12:04;3.63;;;1.67;;
14847;SDS011;7516;43.570;1.448;2023-10-19T00:14:34;3.75;;;1.92;;
14847;SDS011;7516;43.570;1.448;2023-10-19T00:17:01;3.80;;;2.10;;
14847;SDS011;7516;43.570;1.448;2023-10-19T00:19:31;5.15;;;1.83;;
14847;SDS011;7516;43.570;1.448;2023-10-19T00:22:04;2.95;;;1.67;;
14847;SDS011;7516;43.570;1.448;2023-10-19T00:24:40;3.30;;;1.80;;
14847;SDS011;7516;43.570;1.448;2023-10-19T00:27:10;5.75;;;1.95;;
14847;SDS011;7516;43.570;1.448;2023-10-19T00:29:42;3.47;;;1.58;;
14847;SDS011;7516;43.570;1.448;2023-10-19T00:32:15;3.95;;;1.95;;
14847;SDS011;7516;43.570;1.448;2023-10-19T00:34:44;2.83;;;1.85;;
14847;SDS011;7516;43.570;1.448;2023-10-19T00:37:17;3.95;;;1.67;;
14847;SDS011;7516;43.570;1.448;2023-10-19T00:39:50;2.90;;;1.80;;
14847;SDS011;7516;43.570;1.448;2023-10-19T00:42:22;3.53;;;1.60;;
14847;SDS011;7516;43.570;1.448;2023-10-19T00:44:56;4.38;;;1.90;;
14847;SDS011;7516;43.570;1.448;2023-10-19T00:47:29;4.07;;;1.95;;
14847;SDS011;7516;43.570;1.448;2023-10-19T00:50:05;6.30;;;2.42;;
14847;SDS011;7516;43.570;1.448;2023-10-19T00:52:39;4.70;;;2.38;;
14847;SDS011;7516;43.570;1.448;2023-10-19T00:55:09;8.27;;;2.60;;
14847;SDS011;7516;43.570;1.448;2023-10-19T00:57:39;6.57;;;2.70;;
14847;SDS011;7516;43.570;1.448;2023-10-19T01:00:11;4.53;;;2.80;;
14847;SDS011;7516;43.570;1.448;2023-10-19T01:02:47;7.38;;;3.47;;
14847;SDS011;7516;43.570;1.448;2023-10-19T01:05:16;4.18;;;2.90;;
14847;SDS011;7516;43.570;1.448;2023-10-19T01:07:46;7.00;;;2.85;;
14847;SDS011;7516;43.570;1.448;2023-10-19T01:10:21;5.38;;;3.30;;
14847;SDS011;7516;43.570;1.448;2023-10-19T01:12:51;6.47;;;2.90;;
14847;SDS011;7516;43.570;1.448;2023-10-19T01:15:19;5.95;;;3.00;;
14847;SDS011;7516;43.570;1.448;2023-10-19T01:17:55;4.63;;;2.83;;
14847;SDS011;7516;43.570;1.448;2023-10-19T01:20:23;5.32;;;2.63;;
14847;SDS011;7516;43.570;1.448;2023-10-19T01:23:14;5.78;;;2.40;;
14847;SDS011;7516;43.570;1.448;2023-10-19T01:25:51;4.35;;;2.95;;
14847;SDS011;7516;43.570;1.448;2023-10-19T01:28:29;5.45;;;2.42;;
14847;SDS011;7516;43.570;1.448;2023-10-19T01:31:08;4.20;;;2.63;;
14847;SDS011;7516;43.570;1.448;2023-10-19T01:33:40;4.18;;;2.10;;
14847;SDS011;7516;43.570;1.448;2023-10-19T01:36:09;3.45;;;2.13;;
14847;SDS011;7516;43.570;1.448;2023-10-19T01:38:38;4.10;;;2.00;;
14847;SDS011;7516;43.570;1.448;2023-10-19T01:41:06;4.10;;;1.98;;
14847;SDS011;7516;43.570;1.448;2023-10-19T01:43:39;4.05;;;1.88;;
14847;SDS011;7516;43.570;1.448;2023-10-19T01:46:06;3.38;;;2.03;;
14847;SDS011;7516;43.570;1.448;2023-10-19T01:48:38;2.70;;;2.08;;
14847;SDS011;7516;43.570;1.448;2023-10-19T01:51:06;4.68;;;1.83;;
14847;SDS011;7516;43.570;1.448;2023-10-19T01:53:39;3.75;;;1.83;;
14847;SDS011;7516;43.570;1.448;2023-10-19T01:56:08;3.58;;;1.65;;
14847;SDS011;7516;43.570;1.448;2023-10-19T01:58:36;4.97;;;1.95;;
14847;SDS011;7516;43.570;1.448;2023-10-19T02:01:04;6.03;;;1.98;;
14847;SDS011;7516;43.570;1.448;2023-10-19T02:03:40;6.40;;;1.95;;
14847;SDS011;7516;43.570;1.448;2023-10-19T02:06:07;3.20;;;1.55;;
14847;SDS011;7516;43.570;1.448;2023-10-19T02:08:45;3.65;;;1.63;;
14847;SDS011;7516;43.570;1.448;2023-10-19T02:11:14;4.90;;;2.03;;
14847;SDS011;7516;43.570;1.448;2023-10-19T02:13:43;4.07;;;1.80;;
14847;SDS011;7516;43.570;1.448;2023-10-19T02:16:11;3.78;;;1.80;;
14847;SDS011;7516;43.570;1.448;2023-10-19T02:18:41;4.60;;;2.20;;
14847;SDS011;7516;43.570;1.448;2023-10-19T02:21:08;7.07;;;2.75;;
14847;SDS011;7516;43.570;1.448;2023-10-19T02:23:37;4.60;;;2.10;;
14847;SDS011;7516;43.570;1.448;2023-10-19T02:26:06;4.45;;;2.10;;
14847;SDS011;7516;43.570;1.448;2023-10-19T02:28:37;6.55;;;1.80;;
14847;SDS011;7516;43.570;1.448;2023-10-19T02:31:04;5.90;;;2.20;;
14847;SDS011;7516;43.570;1.448;2023-10-19T02:33:41;8.20;;;2.83;;
14847;SDS011;7516;43.570;1.448;2023-10-19T02:36:11;5.85;;;2.42;;
14847;SDS011;7516;43.570;1.448;2023-10-19T02:38:41;8.00;;;2.30;;
14847;SDS011;7516;43.570;1.448;2023-10-19T02:41:14;6.90;;;2.45;;
14847;SDS011;7516;43.570;1.448;2023-10-19T02:43:42;7.20;;;2.40;;
14847;SDS011;7516;43.570;1.448;2023-10-19T02:46:12;12.25;;;2.67;;
14847;SDS011;7516;43.570;1.448;2023-10-19T02:48:39;12.55;;;3.22;;
14847;SDS011;7516;43.570;1.448;2023-10-19T02:51:09;11.98;;;2.70;;
14847;SDS011;7516;43.570;1.448;2023-10-19T02:53:38;7.57;;;2.38;;
14847;SDS011;7516;43.570;1.448;2023-10-19T02:56:11;9.52;;;2.70;;
14847;SDS011;7516;43.570;1.448;2023-10-19T02:58:43;10.07;;;2.58;;
14847;SDS011;7516;43.570;1.448;2023-10-19T03:01:15;7.85;;;2.67;;
14847;SDS011;7516;43.570;1.448;2023-10-19T03:03:46;12.90;;;2.83;;
14847;SDS011;7516;43.570;1.448;2023-10-19T03:06:19;8.80;;;3.03;;
14847;SDS011;7516;43.570;1.448;2023-10-19T03:08:46;9.00;;;2.35;;
14847;SDS011;7516;43.570;1.448;2023-10-19T03:11:17;6.65;;;2.30;;
14847;SDS011;7516;43.570;1.448;2023-10-19T03:13:46;7.13;;;2.70;;
14847;SDS011;7516;43.570;1.448;2023-10-19T03:16:15;10.43;;;2.58;;
14847;SDS011;7516;43.570;1.448;2023-10-19T03:18:42;6.82;;;2.28;;
14847;SDS011;7516;43.570;1.448;2023-10-19T03:21:10;7.78;;;2.30;;
14847;SDS011;7516;43.570;1.448;2023-10-19T03:23:36;6.93;;;2.25;;
14847;SDS011;7516;43.570;1.448;2023-10-19T03:26:06;5.72;;;2.58;;
14847;SDS011;7516;43.570;1.448;2023-10-19T03:28:52;9.38;;;2.58;;
14847;SDS011;7516;43.570;1.448;2023-10-19T03:31:21;5.00;;;2.05;;
14847;SDS011;7516;43.570;1.448;2023-10-19T03:33:50;6.65;;;2.33;;
14847;SDS011;7516;43.570;1.448;2023-10-19T03:36:24;7.97;;;2.85;;
14847;SDS011;7516;43.570;1.448;2023-10-19T03:38:52;8.90;;;3.47;;
14847;SDS011;7516;43.570;1.448;2023-10-19T03:41:24;11.25;;;3.45;;
14847;SDS011;7516;43.570;1.448;2023-10-19T03:43:54;7.57;;;2.22;;
14847;SDS011;7516;43.570;1.448;2023-10-19T03:46:23;6.55;;;2.22;;
14847;SDS011;7516;43.570;1.448;2023-10-19T03:48:54;11.52;;;2.92;;
14847;SDS011;7516;43.570;1.448;2023-10-19T03:51:24;8.85;;;2.20;;
14847;SDS011;7516;43.570;1.448;2023-10-19T03:53:52;14.63;;;3.05;;
14847;SDS011;7516;43.570;1.448;2023-10-19T03:56:26;9.48;;;2.55;;
14847;SDS011;7516;43.570;1.448;2023-10-19T03:58:59;6.88;;;2.67;;
14847;SDS011;7516;43.570;1.448;2023-10-19T04:01:29;9.15;;;2.58;;
14847;SDS011;7516;43.570;1.448;2023-10-19T04:03:56;10.35;;;3.30;;
14847;SDS011;7516;43.570;1.448;2023-10-19T04:06:26;7.50;;;2.42;;
14847;SDS011;7516;43.570;1.448;2023-10-19T04:08:54;11.02;;;2.67;;
14847;SDS011;7516;43.570;1.448;2023-10-19T04:11:21;7.28;;;2.50;;
14847;SDS011;7516;43.570;1.448;2023-10-19T04:13:59;8.27;;;2.75;;
14847;SDS011;7516;43.570;1.448;2023-10-19T04:16:28;6.45;;;2.13;;
14847;SDS011;7516;43.570;1.448;2023-10-19T04:18:59;11.13;;;2.80;;
14847;SDS011;7516;43.570;1.448;2023-10-19T04:21:29;6.15;;;2.03;;
14847;SDS011;7516;43.570;1.448;2023-10-19T04:23:57;10.63;;;2.55;;
14847;SDS011;7516;43.570;1.448;2023-10-19T04:26:24;8.45;;;2.47;;
14847;SDS011;7516;43.570;1.448;2023-10-19T04:28:52;6.95;;;2.03;;
14847;SDS011;7516;43.570;1.448;2023-10-19T04:31:21;5.78;;;1.80;;
14847;SDS011;7516;43.570;1.448;2023-10-19T04:33:49;11.10;;;2.75;;
14847;SDS011;7516;43.570;1.448;2023-10-19T04:36:16;7.00;;;2.00;;
14847;SDS011;7516;43.570;1.448;2023-10-19T04:38:47;9.05;;;2.55;;
14847;SDS011;7516;43.570;1.448;2023-10-19T04:41:14;8.80;;;2.42;;
14847;SDS011;7516;43.570;1.448;2023-10-19T04:43:42;6.05;;;1.63;;
14847;SDS011;7516;43.570;1.448;2023-10-19T04:46:15;6.65;;;2.00;;
14847;SDS011;7516;43.570;1.448;2023-10-19T04:48:45;6.22;;;2.10;;
14847;SDS011;7516;43.570;1.448;2023-10-19T04:51:14;7.07;;;1.60;;
14847;SDS011;7516;43.570;1.448;2023-10-19T04:53:43;5.53;;;2.13;;
14847;SDS011;7516;43.570;1.448;2023-10-19T04:56:10;9.68;;;2.00;;
14847;SDS011;7516;43.570;1.448;2023-10-19T04:58:39;4.32;;;1.65;;
14847;SDS011;7516;43.570;1.448;2023-10-19T05:01:06;5.30;;;1.60;;
14847;SDS011;7516;43.570;1.448;2023-10-19T05:03:36;5.25;;;1.80;;
14847;SDS011;7516;43.570;1.448;2023-10-19T05:06:05;6.13;;;1.67;;
14847;SDS011;7516;43.570;1.448;2023-10-19T05:08:34;5.78;;;1.48;;
14847;SDS011;7516;43.570;1.448;2023-10-19T05:11:02;3.38;;;1.90;;
14847;SDS011;7516;43.570;1.448;2023-10-19T05:13:30;4.57;;;1.55;;
14847;SDS011;7516;43.570;1.448;2023-10-19T05:15:58;4.80;;;1.70;;
14847;SDS011;7516;43.570;1.448;2023-10-19T05:18:26;4.25;;;1.40;;
14847;SDS011;7516;43.570;1.448;2023-10-19T05:20:54;6.20;;;1.65;;
14847;SDS011;7516;43.570;1.448;2023-10-19T05:23:24;4.25;;;1.42;;
14847;SDS011;7516;43.570;1.448;2023-10-19T05:25:53;4.85;;;1.17;;
14847;SDS011;7516;43.570;1.448;2023-10-19T05:28:27;5.03;;;1.30;;
14847;SDS011;7516;43.570;1.448;2023-10-19T05:30:55;5.25;;;1.50;;
14847;SDS011;7516;43.570;1.448;2023-10-19T05:33:23;5.13;;;1.38;;
14847;SDS011;7516;43.570;1.448;2023-10-19T05:35:51;3.72;;;1.20;;
14847;SDS011;7516;43.570;1.448;2023-10-19T05:38:18;5.00;;;1.50;;
14847;SDS011;7516;43.570;1.448;2023-10-19T05:40:48;4.80;;;1.40;;
14847;SDS011;7516;43.570;1.448;2023-10-19T05:43:17;3.08;;;1.10;;
14847;SDS011;7516;43.570;1.448;2023-10-19T05:45:44;3.75;;;1.40;;
14847;SDS011;7516;43.570;1.448;2023-10-19T05:48:15;4.10;;;1.40;;
14847;SDS011;7516;43.570;1.448;2023-10-19T05:50:42;3.17;;;1.30;;
14847;SDS011;7516;43.570;1.448;2023-10-19T05:53:10;2.95;;;1.58;;
14847;SDS011;7516;43.570;1.448;2023-10-19T05:55:39;3.38;;;1.35;;
14847;SDS011;7516;43.570;1.448;2023-10-19T05:58:07;3.03;;;1.27;;
14847;SDS011;7516;43.570;1.448;2023-10-19T06:00:35;2.60;;;1.30;;
14847;SDS011;7516;43.570;1.448;2023-10-19T06:03:02;2.95;;;1.23;;
14847;SDS011;7516;43.570;1.448;2023-10-19T06:05:30;6.63;;;1.70;;
14847;SDS011;7516;43.570;1.448;2023-10-19T06:07:58;3.60;;;1.30;;
14847;SDS011;7516;43.570;1.448;2023-10-19T06:10:27;5.28;;;1.60;;
14847;SDS011;7516;43.570;1.448;2023-10-19T06:12:55;5.90;;;1.75;;
14847;SDS011;7516;43.570;1.448;2023-10-19T06:15:25;7.57;;;1.65;;
14847;SDS011;7516;43.570;1.448;2023-10-19T06:17:53;4.15;;;1.85;;
14847;SDS011;7516;43.570;1.448;2023-10-19T06:20:21;9.18;;;1.83;;
14847;SDS011;7516;43.570;1.448;2023-10-19T06:22:52;4.20;;;1.60;;
14847;SDS011;7516;43.570;1.448;2023-10-19T06:25:21;3.40;;;1.70;;
14847;SDS011;7516;43.570;1.448;2023-10-19T06:27:50;5.90;;;1.85;;
14847;SDS011;7516;43.570;1.448;2023-10-19T06:30:22;6.65;;;1.65;;
14847;SDS011;7516;43.570;1.448;2023-10-19T06:32:52;4.10;;;1.65;;
14847;SDS011;7516;43.570;1.448;2023-10-19T06:35:21;6.65;;;1.55;;
14847;SDS011;7516;43.570;1.448;2023-10-19T06:37:49;3.90;;;1.40;;
14847;SDS011;7516;43.570;1.448;2023-10-19T06:40:16;5.50;;;2.28;;
14847;SDS011;7516;43.570;1.448;2023-10-19T06:42:44;5.28;;;1.35;;
14847;SDS011;7516;43.570;1.448;2023-10-19T06:45:12;7.68;;;1.60;;
14847;SDS011;7516;43.570;1.448;2023-10-19T06:47:41;4.25;;;1.48;;
14847;SDS011;7516;43.570;1.448;2023-10-19T06:50:12;5.82;;;2.13;;
14847;SDS011;7516;43.570;1.448;2023-10-19T06:52:41;6.05;;;2.55;;
14847;SDS011;7516;43.570;1.448;2023-10-19T06:55:09;5.05;;;2.03;;
14847;SDS011;7516;43.570;1.448;2023-10-19T06:57:40;4.43;;;1.80;;
14847;SDS011;7516;43.570;1.448;2023-10-19T07:00:09;6.18;;;1.63;;
14847;SDS011;7516;43.570;1.448;2023-10-19T07:02:40;4.03;;;1.67;;
14847;SDS011;7516;43.570;1.448;2023-10-19T07:05:09;5.35;;;1.65;;
14847;SDS011;7516;43.570;1.448;2023-10-19T07:07:40;7.43;;;1.95;;
14847;SDS011;7516;43.570;1.448;2023-10-19T07:10:08;4.50;;;1.73;;
14847;SDS011;7516;43.570;1.448;2023-10-19T07:12:37;4.03;;;1.92;;
14847;SDS011;7516;43.570;1.448;2023-10-19T07:15:06;5.32;;;1.88;;
14847;SDS011;7516;43.570;1.448;2023-10-19T07:17:38;4.88;;;1.52;;
14847;SDS011;7516;43.570;1.448;2023-10-19T07:20:06;6.30;;;1.50;;
14847;SDS011;7516;43.570;1.448;2023-10-19T07:22:48;6.68;;;1.70;;
14847;SDS011;7516;43.570;1.448;2023-10-19T07:25:16;6.43;;;1.80;;
14847;SDS011;7516;43.570;1.448;2023-10-19T07:27:46;5.53;;;1.60;;
14847;SDS011;7516;43.570;1.448;2023-10-19T07:30:14;4.88;;;1.45;;
14847;SDS011;7516;43.570;1.448;2023-10-19T07:32:46;4.90;;;1.42;;
14847;SDS011;7516;43.570;1.448;2023-10-19T07:35:16;7.57;;;1.73;;
14847;SDS011;7516;43.570;1.448;2023-10-19T07:37:44;3.38;;;1.70;;
14847;SDS011;7516;43.570;1.448;2023-10-19T07:40:14;4.70;;;1.80;;
14847;SDS011;7516;43.570;1.448;2023-10-19T07:42:43;3.70;;;1.80;;
14847;SDS011;7516;43.570;1.448;2023-10-19T07:45:11;4.55;;;1.90;;
14847;SDS011;7516;43.570;1.448;2023-10-19T07:47:39;6.75;;;1.70;;
14847;SDS011;7516;43.570;1.448;2023-10-19T07:50:07;5.20;;;1.70;;
14847;SDS011;7516;43.570;1.448;2023-10-19T07:52:41;7.28;;;1.77;;
14847;SDS011;7516;43.570;1.448;2023-10-19T07:55:09;3.83;;;1.40;;
14847;SDS011;7516;43.570;1.448;2023-10-19T07:57:38;6.63;;;1.58;;
14847;SDS011;7516;43.570;1.448;2023-10-19T08:00:07;3.78;;;1.38;;
14847;SDS011;7516;43.570;1.448;2023-10-19T08:02:35;4.22;;;1.85;;
14847;SDS011;7516;43.570;1.448;2023-10-19T08:05:06;4.97;;;1.70;;
14847;SDS011;7516;43.570;1.448;2023-10-19T08:07:33;3.63;;;1.52;;
14847;SDS011;7516;43.570;1.448;2023-10-19T08:10:01;7.55;;;1.52;;
14847;SDS011;7516;43.570;1.448;2023-10-19T08:12:30;7.45;;;1.50;;
14847;SDS011;7516;43.570;1.448;2023-10-19T08:15:00;4.07;;;1.58;;
14847;SDS011;7516;43.570;1.448;2023-10-19T08:17:28;4.70;;;1.50;;
14847;SDS011;7516;43.570;1.448;2023-10-19T08:19:56;6.35;;;2.05;;
14847;SDS011;7516;43.570;1.448;2023-10-19T08:22:23;5.90;;;1.70;;
14847;SDS011;7516;43.570;1.448;2023-10-19T08:24:52;5.18;;;1.80;;
14847;SDS011;7516;43.570;1.448;2023-10-19T08:27:19;3.83;;;1.60;;
14847;SDS011;7516;43.570;1.448;2023-10-19T08:29:49;4.40;;;2.05;;
14847;SDS011;7516;43.570;1.448;2023-10-19T08:32:18;6.90;;;2.63;;
14847;SDS011;7516;43.570;1.448;2023-10-19T08:34:45;5.40;;;1.92;;
14847;SDS011;7516;43.570;1.448;2023-10-19T08:37:12;3.60;;;1.75;;
14847;SDS011;7516;43.570;1.448;2023-10-19T08:39:40;4.35;;;1.98;;
14847;SDS011;7516;43.570;1.448;2023-10-19T08:42:08;5.90;;;1.90;;
14847;SDS011;7516;43.570;1.448;2023-10-19T08:44:36;5.70;;;1.80;;
14847;SDS011;7516;43.570;1.448;2023-10-19T08:47:04;7.85;;;1.98;;
14847;SDS011;7516;43.570;1.448;2023-10-19T08:49:32;4.85;;;1.98;;
14847;SDS011;7516;43.570;1.448;2023-10-19T08:52:01;7.88;;;2.40;;
14847;SDS011;7516;43.570;1.448;2023-10-19T08:54:29;7.25;;;2.10;;
14847;SDS011;7516;43.570;1.448;2023-10-19T08:56:58;8.15;;;2.75;;
14847;SDS011;7516;43.570;1.448;2023-10-19T08:59:27;6.68;;;1.88;;
14847;SDS011;7516;43.570;1.448;2023-10-19T09:01:59;4.90;;;2.00;;
14847;SDS011;7516;43.570;1.448;2023-10-19T09:04:27;6.10;;;1.85;;
14847;SDS011;7516;43.570;1.448;2023-10-19T09:06:56;7.80;;;2.53;;
14847;SDS011;7516;43.570;1.448;2023-10-19T09:09:26;6.35;;;2.22;;
14847;SDS011;7516;43.570;1.448;2023-10-19T09:11:58;7.30;;;2.47;;
14847;SDS011;7516;43.570;1.448;2023-10-19T09:14:30;4.40;;;2.50;;
14847;SDS011;7516;43.570;1.448;2023-10-19T09:17:00;6.30;;;2.38;;
14847;SDS011;7516;43.570;1.448;2023-10-19T09:19:36;7.25;;;2.17;;
14847;SDS011;7516;43.570;1.448;2023-10-19T09:22:06;5.88;;;2.00;;
14847;SDS011;7516;43.570;1.448;2023-10-19T09:24:42;6.28;;;2.92;;
14847;SDS011;7516;43.570;1.448;2023-10-19T09:27:10;5.82;;;2.20;;
14847;SDS011;7516;43.570;1.448;2023-10-19T09:29:38;8.43;;;3.00;;
14847;SDS011;7516;43.570;1.448;2023-10-19T09:32:06;9.70;;;2.35;;
14847;SDS011;7516;43.570;1.448;2023-10-19T09:34:35;7.45;;;2.20;;
14847;SDS011;7516;43.570;1.448;2023-10-19T09:37:02;10.73;;;2.30;;
14847;SDS011;7516;43.570;1.448;2023-10-19T09:39:32;8.05;;;2.70;;
14847;SDS011;7516;43.570;1.448;2023-10-19T09:42:05;7.18;;;2.20;;
14847;SDS011;7516;43.570;1.448;2023-10-19T09:44:39;5.25;;;2.45;;
14847;SDS011;7516;43.570;1.448;2023-10-19T09:47:10;5.68;;;2.10;;
14847;SDS011;7516;43.570;1.448;2023-10-19T09:49:40;4.88;;;2.00;;
14847;SDS011;7516;43.570;1.448;2023-10-19T09:52:09;6.43;;;2.25;;
14847;SDS011;7516;43.570;1.448;2023-10-19T09:54:45;9.25;;;2.50;;
14847;SDS011;7516;43.570;1.448;2023-10-19T09:57:20;11.98;;;2.65;;
14847;SDS011;7516;43.570;1.448;2023-10-19T09:59:59;7.40;;;2.28;;
14847;SDS011;7516;43.570;1.448;2023-10-19T10:02:33;5.78;;;2.50;;
14847;SDS011;7516;43.570;1.448;2023-10-19T10:05:02;6.90;;;2.38;;
14847;SDS011;7516;43.570;1.448;2023-10-19T10:07:31;6.35;;;2.50;;
14847;SDS011;7516;43.570;1.448;2023-10-19T10:09:59;7.55;;;2.60;;
14847;SDS011;7516;43.570;1.448;2023-10-19T10:12:29;7.75;;;2.70;;
14847;SDS011;7516;43.570;1.448;2023-10-19T10:15:00;7.82;;;2.65;;
14847;SDS011;7516;43.570;1.448;2023-10-19T10:17:33;6.53;;;2.58;;
14847;SDS011;7516;43.570;1.448;2023-10-19T10:23:16;6.03;;;2.40;;
14847;SDS011;7516;43.570;1.448;2023-10-19T10:25:51;11.98;;;2.97;;
14847;SDS011;7516;43.570;1.448;2023-10-19T10:28:19;7.18;;;2.53;;
14847;SDS011;7516;43.570;1.448;2023-10-19T10:33:38;8.73;;;3.05;;
14847;SDS011;7516;43.570;1.448;2023-10-19T10:36:10;10.10;;;2.97;;
14847;SDS011;7516;43.570;1.448;2023-10-19T10:38:37;7.43;;;3.00;;
14847;SDS011;7516;43.570;1.448;2023-10-19T10:41:07;6.30;;;2.75;;
14847;SDS011;7516;43.570;1.448;2023-10-19T10:43:53;9.05;;;2.60;;
14847;SDS011;7516;43.570;1.448;2023-10-19T10:46:22;7.35;;;2.65;;
14847;SDS011;7516;43.570;1.448;2023-10-19T10:48:52;6.43;;;2.70;;
14847;SDS011;7516;43.570;1.448;2023-10-19T10:51:20;9.27;;;2.50;;
14847;SDS011;7516;43.570;1.448;2023-10-19T10:53:49;9.20;;;2.90;;
14847;SDS011;7516;43.570;1.448;2023-10-19T10:56:20;7.10;;;2.92;;
14847;SDS011;7516;43.570;1.448;2023-10-19T10:58:49;7.55;;;2.60;;
14847;SDS011;7516;43.570;1.448;2023-10-19T11:01:27;4.63;;;2.65;;
14847;SDS011;7516;43.570;1.448;2023-10-19T11:04:05;6.60;;;2.60;;
14847;SDS011;7516;43.570;1.448;2023-10-19T11:06:33;8.85;;;2.80;;
14847;SDS011;7516;43.570;1.448;2023-10-19T11:09:11;7.63;;;2.80;;
14847;SDS011;7516;43.570;1.448;2023-10-19T11:11:44;8.57;;;2.65;;
14847;SDS011;7516;43.570;1.448;2023-10-19T11:14:12;8.60;;;2.60;;
14847;SDS011;7516;43.570;1.448;2023-10-19T11:16:39;9.43;;;2.78;;
14847;SDS011;7516;43.570;1.448;2023-10-19T11:19:08;6.82;;;2.70;;
14847;SDS011;7516;43.570;1.448;2023-10-19T11:21:36;8.25;;;2.85;;
14847;SDS011;7516;43.570;1.448;2023-10-19T11:24:03;7.97;;;2.83;;
14847;SDS011;7516;43.570;1.448;2023-10-19T11:26:35;7.13;;;2.63;;
14847;SDS011;7516;43.570;1.448;2023-10-19T11:29:08;10.40;;;2.65;;
14847;SDS011;7516;43.570;1.448;2023-10-19T11:31:35;7.40;;;2.45;;
14847;SDS011;7516;43.570;1.448;2023-10-19T11:34:04;4.95;;;2.35;;
14847;SDS011;7516;43.570;1.448;2023-10-19T11:36:33;6.75;;;2.60;;
14847;SDS011;7516;43.570;1.448;2023-10-19T11:39:02;6.43;;;2.65;;
14847;SDS011;7516;43.570;1.448;2023-10-19T11:41:33;7.82;;;2.70;;
14847;SDS011;7516;43.570;1.448;2023-10-19T11:44:00;7.82;;;2.45;;
14847;SDS011;7516;43.570;1.448;2023-10-19T11:46:29;8.63;;;2.75;;
14847;SDS011;7516;43.570;1.448;2023-10-19T11:48:57;7.05;;;2.53;;
14847;SDS011;7516;43.570;1.448;2023-10-19T11:51:24;8.98;;;2.50;;
14847;SDS011;7516;43.570;1.448;2023-10-19T11:53:52;6.70;;;2.40;;
14847;SDS011;7516;43.570;1.448;2023-10-19T11:56:20;6.60;;;2.55;;
14847;SDS011;7516;43.570;1.448;2023-10-19T11:58:50;8.23;;;2.58;;
14847;SDS011;7516;43.570;1.448;2023-10-19T12:01:18;5.35;;;2.20;;
14847;SDS011;7516;43.570;1.448;2023-10-19T12:03:46;6.20;;;2.55;;
14847;SDS011;7516;43.570;1.448;2023-10-19T12:06:15;7.57;;;2.20;;
14847;SDS011;7516;43.570;1.448;2023-10-19T12:08:45;10.23;;;2.67;;
14847;SDS011;7516;43.570;1.448;2023-10-19T12:11:12;7.50;;;2.72;;
14847;SDS011;7516;43.570;1.448;2023-10-19T12:13:42;7.18;;;2.55;;
14847;SDS011;7516;43.570;1.448;2023-10-19T12:16:09;7.32;;;2.10;;
14847;SDS011;7516;43.570;1.448;2023-10-19T12:18:38;9.30;;;2.92;;
14847;SDS011;7516;43.570;1.448;2023-10-19T12:21:08;6.63;;;2.30;;
14847;SDS011;7516;43.570;1.448;2023-10-19T12:23:38;7.00;;;2.40;;
14847;SDS011;7516;43.570;1.448;2023-10-19T12:26:08;6.82;;;2.88;;
14847;SDS011;7516;43.570;1.448;2023-10-19T12:28:37;8.95;;;2.47;;
14847;SDS011;7516;43.570;1.448;2023-10-19T12:31:05;7.43;;;2.65;;
14847;SDS011;7516;43.570;1.448;2023-10-19T12:33:34;5.90;;;2.60;;
14847;SDS011;7516;43.570;1.448;2023-10-19T12:36:01;5.70;;;2.65;;
14847;SDS011;7516;43.570;1.448;2023-10-19T12:38:49;5.72;;;2.85;;
14847;SDS011;7516;43.570;1.448;2023-10-19T12:41:17;5.38;;;2.50;;
14847;SDS011;7516;43.570;1.448;2023-10-19T12:43:46;6.80;;;2.78;;
14847;SDS011;7516;43.570;1.448;2023-10-19T12:46:17;5.63;;;2.38;;
14847;SDS011;7516;43.570;1.448;2023-10-19T12:48:45;7.28;;;2.30;;
14847;SDS011;7516;43.570;1.448;2023-10-19T12:51:12;5.65;;;2.33;;
14847;SDS011;7516;43.570;1.448;2023-10-19T12:53:42;4.10;;;2.38;;
14847;SDS011;7516;43.570;1.448;2023-10-19T12:56:12;7.03;;;2.40;;
14847;SDS011;7516;43.570;1.448;2023-10-19T12:58:40;6.03;;;2.55;;
14847;SDS011;7516;43.570;1.448;2023-10-19T13:01:08;8.13;;;2.67;;
14847;SDS011;7516;43.570;1.448;2023-10-19T13:03:41;7.93;;;3.15;;
14847;SDS011;7516;43.570;1.448;2023-10-19T13:06:10;5.85;;;2.50;;
14847;SDS011;7516;43.570;1.448;2023-10-19T13:08:38;6.25;;;2.65;;
14847;SDS011;7516;43.570;1.448;2023-10-19T13:11:07;10.20;;;2.72;;
14847;SDS011;7516;43.570;1.448;2023-10-19T13:13:36;8.18;;;2.58;;
14847;SDS011;7516;43.570;1.448;2023-10-19T13:16:04;8.85;;;2.80;;
14847;SDS011;7516;43.570;1.448;2023-10-19T13:18:34;4.95;;;2.25;;
14847;SDS011;7516;43.570;1.448;2023-10-19T13:21:02;8.15;;;3.67;;
14847;SDS011;7516;43.570;1.448;2023-10-19T13:23:30;6.93;;;2.55;;
14847;SDS011;7516;43.570;1.448;2023-10-19T13:25:59;5.88;;;2.50;;
14847;SDS011;7516;43.570;1.448;2023-10-19T13:28:43;5.05;;;2.78;;
14847;SDS011;7516;43.570;1.448;2023-10-19T13:31:11;5.78;;;2.80;;
14847;SDS011;7516;43.570;1.448;2023-10-19T13:33:40;9.93;;;2.95;;
14847;SDS011;7516;43.570;1.448;2023-10-19T13:36:10;6.78;;;2.50;;
14847;SDS011;7516;43.570;1.448;2023-10-19T13:38:37;7.68;;;3.15;;
14847;SDS011;7516;43.570;1.448;2023-10-19T13:41:05;7.75;;;2.60;;
14847;SDS011;7516;43.570;1.448;2023-10-19T13:43:34;5.10;;;2.47;;
14847;SDS011;7516;43.570;1.448;2023-10-19T13:46:03;6.07;;;2.72;;
14847;SDS011;7516;43.570;1.448;2023-10-19T13:48:31;4.35;;;2.58;;
14847;SDS011;7516;43.570;1.448;2023-10-19T13:50:59;5.43;;;2.70;;
14847;SDS011;7516;43.570;1.448;2023-10-19T13:53:31;8.98;;;2.97;;
14847;SDS011;7516;43.570;1.448;2023-10-19T13:55:58;5.20;;;2.60;;
14847;SDS011;7516;43.570;1.448;2023-10-19T13:58:26;6.70;;;2.40;;
14847;SDS011;7516;43.570;1.448;2023-10-19T14:00:53;6.05;;;2.90;;
14847;SDS011;7516;43.570;1.448;2023-10-19T14:03:22;7.80;;;2.42;;
14847;SDS011;7516;43.570;1.448;2023-10-19T14:05:50;8.85;;;3.63;;
14847;SDS011;7516;43.570;1.448;2023-10-19T14:08:21;4.95;;;2.75;;
14847;SDS011;7516;43.570;1.448;2023-10-19T14:10:49;8.73;;;2.75;;
14847;SDS011;7516;43.570;1.448;2023-10-19T14:13:16;7.70;;;3.03;;
14847;SDS011;7516;43.570;1.448;2023-10-19T14:15:43;7.63;;;3.67;;
14847;SDS011;7516;43.570;1.448;2023-10-19T14:18:11;6.88;;;3.00;;
14847;SDS011;7516;43.570;1.448;2023-10-19T14:20:40;6.80;;;2.90;;
14847;SDS011;7516;43.570;1.448;2023-10-19T14:23:07;9.52;;;2.88;;
14847;SDS011;7516;43.570;1.448;2023-10-19T14:25:36;8.15;;;3.05;;
14847;SDS011;7516;43.570;1.448;2023-10-19T14:28:07;7.47;;;3.25;;
14847;SDS011;7516;43.570;1.448;2023-10-19T14:30:35;6.50;;;2.97;;
14847;SDS011;7516;43.570;1.448;2023-10-19T14:33:02;7.85;;;2.85;;
14847;SDS011;7516;43.570;1.448;2023-10-19T14:35:34;8.30;;;3.05;;
14847;SDS011;7516;43.570;1.448;2023-10-19T14:38:05;6.57;;;2.65;;
14847;SDS011;7516;43.570;1.448;2023-10-19T14:40:34;7.82;;;2.78;;
14847;SDS011;7516;43.570;1.448;2023-10-19T14:43:02;6.07;;;2.60;;
14847;SDS011;7516;43.570;1.448;2023-10-19T14:45:30;6.55;;;2.97;;
14847;SDS011;7516;43.570;1.448;2023-10-19T14:47:57;10.48;;;2.75;;
14847;SDS011;7516;43.570;1.448;2023-10-19T14:50:28;7.03;;;3.13;;
14847;SDS011;7516;43.570;1.448;2023-10-19T14:52:56;6.53;;;2.72;;
14847;SDS011;7516;43.570;1.448;2023-10-19T14:55:25;9.43;;;3.95;;
14847;SDS011;7516;43.570;1.448;2023-10-19T14:57:54;7.53;;;2.88;;
14847;SDS011;7516;43.570;1.448;2023-10-19T15:00:23;8.73;;;3.08;;
14847;SDS011;7516;43.570;1.448;2023-10-19T15:02:57;8.65;;;3.00;;
14847;SDS011;7516;43.570;1.448;2023-10-19T15:05:27;6.28;;;2.83;;
14847;SDS011;7516;43.570;1.448;2023-10-19T15:07:54;5.10;;;3.20;;
14847;SDS011;7516;43.570;1.448;2023-10-19T15:10:22;6.68;;;2.60;;
14847;SDS011;7516;43.570;1.448;2023-10-19T15:12:53;7.65;;;2.88;;
14847;SDS011;7516;43.570;1.448;2023-10-19T15:15:21;6.25;;;2.70;;
14847;SDS011;7516;43.570;1.448;2023-10-19T15:17:49;5.07;;;3.17;;
14847;SDS011;7516;43.570;1.448;2023-10-19T15:20:18;5.47;;;2.30;;
14847;SDS011;7516;43.570;1.448;2023-10-19T15:22:47;7.85;;;3.03;;